createdAt,value
2023-05-19T00:00:35.091Z,9.9317
2023-05-19T00:01:35.171Z,9.8263
2023-05-19T00:02:36.423Z,9.8932
2023-05-19T00:03:37.877Z,9.7988
2023-05-19T00:04:39.954Z,9.8301
2023-05-19T00:05:41.831Z,9.8007
2023-05-19T00:06:43.072Z,9.9231
2023-05-19T00:07:44.575Z,9.9195
2023-05-19T00:08:45.840Z,9.9123
2023-05-19T00:09:47.632Z,9.8605
2023-05-19T00:10:49.751Z,9.8122
2023-05-19T00:11:51.456Z,9.8457
2023-05-19T00:12:53.869Z,9.8059
2023-05-19T00:13:53.142Z,9.8191
2023-05-19T00:14:53.672Z,9.7234
2023-05-19T00:15:55.637Z,9.7935
2023-05-19T00:16:57.303Z,9.8506
2023-05-19T00:17:58.310Z,9.7704
2023-05-19T00:18:59.318Z,9.8916
2023-05-19T00:22:02.910Z,9.8455
2023-05-19T00:23:03.955Z,9.9112
2023-05-19T00:24:06.690Z,9.9855
2023-05-19T00:25:08.371Z,9.8862
2023-05-19T00:26:09.995Z,9.9564
2023-05-19T00:27:10.861Z,10.0136
2023-05-19T00:28:12.647Z,9.8353
2023-05-19T00:29:14.263Z,9.7297
2023-05-19T00:30:16.181Z,9.6790
2023-05-19T00:31:16.431Z,9.7469
2023-05-19T00:32:18.382Z,9.6963
2023-05-19T00:35:21.785Z,9.8655
2023-05-19T00:36:22.808Z,9.7712
2023-05-19T00:37:23.870Z,9.6831
2023-05-19T00:38:25.762Z,9.7368
2023-05-19T00:39:27.444Z,9.5785
2023-05-19T00:40:28.560Z,9.5284
2023-05-19T00:41:30.535Z,9.6433
2023-05-19T00:42:30.814Z,9.6464
2023-05-19T00:43:31.697Z,9.6823
2023-05-19T00:44:32.412Z,9.7042
2023-05-19T00:45:34.263Z,9.6295
2023-05-19T00:47:42.680Z,9.5211
2023-05-19T00:49:05.549Z,9.5651
2023-05-19T00:50:06.970Z,9.5426
2023-05-19T00:51:08.887Z,9.4927
2023-05-19T00:52:09.924Z,9.4520
2023-05-19T00:54:12.461Z,9.6107
2023-05-19T00:55:13.397Z,9.4636
2023-05-19T00:56:15.184Z,9.5417
2023-05-19T00:57:16.527Z,9.5837
2023-05-19T00:58:17.850Z,9.5045
2023-05-19T00:59:19.209Z,9.5708
2023-05-19T01:00:21.465Z,9.7802
2023-05-19T01:06:27.875Z,9.4471
2023-05-19T01:07:28.094Z,9.3140
2023-05-19T01:08:29.212Z,9.3145
2023-05-19T01:09:31.721Z,9.2530
2023-05-19T01:10:34.203Z,9.3490
2023-05-19T01:12:35.853Z,9.2291
2023-05-19T01:13:38.651Z,9.2873
2023-05-19T01:14:38.562Z,9.1692
2023-05-19T01:15:39.377Z,9.3107
2023-05-19T01:16:40.211Z,9.2205
2023-05-19T01:17:41.382Z,9.1434
2023-05-19T01:18:42.525Z,9.1864
2023-05-19T01:19:44.183Z,9.1548
2023-05-19T01:20:45.770Z,9.1684
2023-05-19T01:21:46.733Z,9.1883
2023-05-19T01:22:47.509Z,9.1953
2023-05-19T01:23:48.675Z,9.1783
2023-05-19T01:25:50.895Z,9.0290
2023-05-19T01:26:52.477Z,9.0550
2023-05-19T01:27:53.661Z,8.9347
2023-05-19T01:28:55.883Z,8.8290
2023-05-19T01:29:57.876Z,8.8039
2023-05-19T01:30:59.793Z,8.8999
2023-05-19T01:31:59.849Z,9.1575
2023-05-19T01:33:01.625Z,9.0998
2023-05-19T01:35:01.220Z,9.2080
2023-05-19T01:36:02.256Z,9.0608
2023-05-19T01:37:03.386Z,9.0269
2023-05-19T01:38:05.549Z,9.0562
2023-05-19T01:39:06.231Z,9.0533
2023-05-19T01:41:07.313Z,9.1622
2023-05-19T01:42:08.127Z,9.2682
2023-05-19T01:44:10.769Z,9.2319
2023-05-19T01:45:12.581Z,9.1161
2023-05-19T01:49:15.993Z,8.9445
2023-05-19T01:50:16.717Z,8.8543
2023-05-19T01:51:17.193Z,8.8308
2023-05-19T01:52:19.097Z,9.0808
2023-05-19T01:53:20.990Z,9.2086
2023-05-19T01:54:22.290Z,9.1673
2023-05-19T01:55:24.317Z,9.1252
2023-05-19T01:56:26.600Z,8.9984
2023-05-19T01:57:27.569Z,9.0050
2023-05-19T01:58:28.863Z,9.1131
2023-05-19T01:59:31.727Z,9.1860
2023-05-19T02:01:32.386Z,9.0587
2023-05-19T02:02:32.576Z,9.2795
2023-05-19T02:03:33.204Z,9.2032
2023-05-19T02:04:35.766Z,9.3056
2023-05-19T02:05:36.872Z,9.2401
2023-05-19T02:06:37.694Z,9.1843
2023-05-19T02:09:42.783Z,9.1737
2023-05-19T02:10:43.354Z,9.2128
2023-05-19T02:11:44.542Z,9.1232
2023-05-19T02:12:44.658Z,9.0715
2023-05-19T02:13:45.626Z,9.0812
2023-05-19T02:14:46.654Z,9.0101
2023-05-19T02:15:47.727Z,9.0440
2023-05-19T02:16:48.925Z,8.9817
2023-05-19T02:17:51.008Z,9.1095
2023-05-19T02:23:55.271Z,9.1375
2023-05-19T02:24:56.437Z,9.0772
2023-05-19T02:26:59.912Z,9.1071
2023-05-19T02:28:01.674Z,9.1174
2023-05-19T02:29:03.281Z,9.0437
2023-05-19T02:30:04.518Z,8.9063
2023-05-19T02:31:07.173Z,9.0956
2023-05-19T02:33:07.684Z,9.1427
2023-05-19T02:34:08.445Z,9.1832
2023-05-19T02:35:09.742Z,9.1287
2023-05-19T02:36:11.296Z,9.1579
2023-05-19T02:37:13.191Z,9.1113
2023-05-19T02:38:14.837Z,9.0755
2023-05-19T02:39:16.690Z,9.2975
2023-05-19T02:40:18.137Z,9.0990
2023-05-19T02:41:20.270Z,9.1772
2023-05-19T02:43:21.657Z,9.0822
2023-05-19T02:44:22.445Z,9.2520
2023-05-19T02:45:24.037Z,9.1638
2023-05-19T02:46:25.817Z,9.1409
2023-05-19T02:47:27.615Z,9.1545
2023-05-19T02:48:29.284Z,9.0674
2023-05-19T02:49:30.598Z,9.1293
2023-05-19T03:02:34.978Z,8.9989
2023-05-19T03:05:38.129Z,9.0527
2023-05-19T03:07:39.296Z,8.8825
2023-05-19T03:08:42.335Z,8.7929
2023-05-19T03:09:41.536Z,8.6713
2023-05-19T03:10:42.315Z,8.7408
2023-05-19T03:11:44.855Z,8.8663
2023-05-19T03:12:46.002Z,8.9363
2023-05-19T03:13:46.504Z,8.9726
2023-05-19T03:14:46.772Z,8.9394
2023-05-19T03:15:48.899Z,9.0192
2023-05-19T03:16:50.399Z,8.9646
2023-05-19T03:17:51.448Z,8.8681
2023-05-19T03:19:52.826Z,8.9444
2023-05-19T03:20:53.862Z,8.8315
2023-05-19T03:22:57.098Z,8.8214
2023-05-19T03:23:57.908Z,8.8756
2023-05-19T03:24:59.343Z,8.8507
2023-05-19T03:26:02.232Z,8.8988
2023-05-19T03:33:06.938Z,8.7233
2023-05-19T03:34:08.348Z,8.6326
2023-05-19T03:35:09.149Z,8.6625
2023-05-19T03:36:10.110Z,8.4703
2023-05-19T03:37:12.276Z,8.8138
2023-05-19T03:38:14.146Z,8.6846
2023-05-19T03:42:47.299Z,8.8546
2023-05-19T03:43:48.368Z,8.8009
2023-05-19T03:46:52.708Z,8.7405
2023-05-19T03:47:54.517Z,8.8219
2023-05-19T03:48:54.962Z,8.7508
2023-05-19T03:49:56.172Z,8.6346
2023-05-19T03:50:57.394Z,8.5534
2023-05-19T03:51:59.433Z,8.5392
2023-05-19T03:53:00.289Z,8.5434
2023-05-19T03:54:01.343Z,8.4974
2023-05-19T03:55:02.594Z,8.4681
2023-05-19T03:56:04.279Z,8.4339
2023-05-19T03:57:06.115Z,8.4449
2023-05-19T03:58:07.315Z,8.3101
2023-05-19T03:59:08.395Z,8.3456
2023-05-19T04:00:09.703Z,8.6408
2023-05-19T04:01:10.849Z,8.5691
2023-05-19T04:02:12.832Z,8.6785
2023-05-19T04:03:14.338Z,8.6558
2023-05-19T04:04:15.833Z,8.6289
2023-05-19T04:05:17.260Z,8.4949
2023-05-19T04:06:19.008Z,8.5705
2023-05-19T04:07:20.467Z,8.6645
2023-05-19T04:08:23.506Z,8.5562
2023-05-19T04:11:25.471Z,8.6435
2023-05-19T04:12:27.001Z,8.6060
2023-05-19T04:13:28.039Z,8.5489
2023-05-19T04:15:31.341Z,8.4043
2023-05-19T04:16:32.295Z,8.4166
2023-05-19T04:18:32.839Z,8.3703
2023-05-19T04:19:34.619Z,8.4734
2023-05-19T04:21:34.972Z,8.7895
2023-05-19T04:22:36.115Z,8.6551
2023-05-19T04:24:37.959Z,8.6052
2023-05-19T04:25:38.497Z,8.5360
2023-05-19T04:26:39.668Z,8.5854
2023-05-19T04:27:41.195Z,8.6438
2023-05-19T04:28:43.528Z,8.6535
2023-05-19T04:30:44.288Z,8.5459
2023-05-19T04:31:44.639Z,8.6406
2023-05-19T04:33:45.536Z,8.6169
2023-05-19T04:34:47.321Z,8.7230
2023-05-19T04:39:53.649Z,8.8654
2023-05-19T04:40:55.523Z,8.8997
2023-05-19T04:41:58.030Z,8.9700
2023-05-19T04:42:58.672Z,9.0079
2023-05-19T04:44:00.925Z,9.0302
2023-05-19T04:45:01.727Z,9.0119
2023-05-19T04:46:02.754Z,9.0450
2023-05-19T04:48:05.513Z,9.1318
2023-05-19T04:49:07.817Z,9.2389
2023-05-19T04:51:07.668Z,9.0980
2023-05-19T04:52:08.891Z,9.1299
2023-05-19T04:53:10.475Z,9.1330
2023-05-19T04:54:11.835Z,9.1924
2023-05-19T04:55:12.974Z,9.2409
2023-05-19T04:56:15.038Z,9.2704
2023-05-19T04:57:17.221Z,9.3748
2023-05-19T04:58:19.104Z,9.3185
2023-05-19T04:59:20.205Z,9.3681
2023-05-19T05:00:23.237Z,9.4554
2023-05-19T05:02:23.980Z,9.4396
2023-05-19T05:03:25.597Z,9.4126
2023-05-19T05:04:26.608Z,9.5651
2023-05-19T05:05:28.208Z,9.4586
2023-05-19T05:06:29.763Z,9.4806
2023-05-19T05:08:31.015Z,9.6392
2023-05-19T05:09:33.531Z,9.5934
2023-05-19T05:10:35.705Z,9.6941
2023-05-19T05:11:35.804Z,9.6522
2023-05-19T05:12:37.412Z,9.7106
2023-05-19T05:13:39.098Z,9.5760
2023-05-19T05:15:41.823Z,9.4849
2023-05-19T05:16:43.625Z,9.6599
2023-05-19T05:17:45.492Z,9.8873
2023-05-19T05:18:47.279Z,9.8835
2023-05-19T05:19:48.618Z,9.8196
2023-05-19T05:20:49.718Z,9.9744
2023-05-19T05:21:52.341Z,10.0088
2023-05-19T05:26:57.352Z,9.8326
2023-05-19T05:27:58.996Z,9.8988
2023-05-19T05:28:59.912Z,9.6967
2023-05-19T05:32:03.529Z,9.5704
2023-05-19T05:33:04.576Z,9.4769
2023-05-19T05:34:05.392Z,9.4857
2023-05-19T05:35:06.614Z,9.5382
2023-05-19T05:36:08.393Z,9.4024
2023-05-19T05:37:08.891Z,9.4563
2023-05-19T05:38:11.336Z,9.4492
2023-05-19T05:39:12.827Z,9.4585
2023-05-19T05:40:14.754Z,9.4322
2023-05-19T05:41:14.875Z,9.4351
2023-05-19T05:42:17.237Z,9.4266
2023-05-19T05:43:16.935Z,9.3554
2023-05-19T05:44:17.706Z,9.2901
2023-05-19T05:46:20.321Z,9.3305
2023-05-19T05:48:21.814Z,9.3207
2023-05-19T05:49:24.333Z,9.2389
2023-05-19T05:50:24.543Z,9.3042
2023-05-19T05:53:26.442Z,9.2881
2023-05-19T05:55:28.152Z,9.4244
2023-05-19T05:56:29.569Z,9.2559
2023-05-19T05:57:29.716Z,9.2110
2023-05-19T05:58:31.460Z,9.2480
2023-05-19T05:59:33.076Z,9.2375
2023-05-19T06:00:34.846Z,9.2470
2023-05-19T06:01:35.702Z,9.2261
2023-05-19T06:02:37.523Z,9.2154
2023-05-19T06:03:37.576Z,9.1451
2023-05-19T06:04:39.677Z,9.1258
2023-05-19T06:05:42.075Z,9.1591
2023-05-19T06:09:59.969Z,9.2055
2023-05-19T06:11:16.974Z,9.1321
2023-05-19T06:12:18.033Z,9.1643
2023-05-19T06:13:18.240Z,9.1617
2023-05-19T06:14:20.725Z,9.1185
2023-05-19T06:15:22.112Z,9.1424
2023-05-19T06:16:23.471Z,9.1773
2023-05-19T06:17:25.228Z,9.1290
2023-05-19T06:18:26.949Z,9.1751
2023-05-19T06:19:28.844Z,9.1107
2023-05-19T06:20:29.726Z,9.0831
2023-05-19T06:21:31.420Z,9.0825
2023-05-19T06:23:32.201Z,9.0406
2023-05-19T06:24:34.373Z,9.0244
2023-05-19T06:25:34.850Z,9.0221
2023-05-19T06:26:35.222Z,9.0150
2023-05-19T06:27:37.848Z,9.0631
2023-05-19T06:28:38.488Z,9.0180
2023-05-19T06:29:39.934Z,9.0529
2023-05-19T06:30:42.858Z,9.0406
2023-05-19T06:31:44.803Z,9.1012
2023-05-19T06:37:51.846Z,9.0855
2023-05-19T06:38:53.473Z,9.0658
2023-05-19T06:39:54.403Z,9.0758
2023-05-19T06:40:56.175Z,9.0760
2023-05-19T06:41:58.494Z,9.0499
2023-05-19T06:43:00.534Z,9.1001
2023-05-19T06:44:02.708Z,9.0858
2023-05-19T06:45:03.777Z,9.1691
2023-05-19T06:46:05.766Z,9.1158
2023-05-19T06:47:07.652Z,9.1390
2023-05-19T06:48:07.606Z,9.1079
2023-05-19T06:49:09.069Z,9.1473
2023-05-19T06:50:10.680Z,9.0463
2023-05-19T06:51:12.816Z,9.1029
2023-05-19T06:52:14.262Z,9.0640
2023-05-19T06:53:15.245Z,9.0752
2023-05-19T06:54:16.511Z,9.0465
2023-05-19T06:55:17.634Z,9.1509
2023-05-19T06:56:18.659Z,9.2238
2023-05-19T06:57:32.869Z,9.2398
2023-05-19T08:56:28.579Z,11.4523
2023-05-19T08:57:30.019Z,11.5264
2023-05-19T08:58:30.557Z,11.4214
2023-05-19T09:01:33.183Z,11.1865
2023-05-19T09:03:34.276Z,11.9453
2023-05-19T09:04:34.890Z,11.4615
2023-05-19T09:05:36.693Z,11.5849
2023-05-19T09:06:38.065Z,11.4722
2023-05-19T09:07:40.111Z,11.1393
2023-05-19T09:08:40.828Z,11.5143
2023-05-19T09:09:41.575Z,11.7444
2023-05-19T09:10:42.551Z,11.6738
2023-05-19T09:11:42.991Z,11.7473
2023-05-19T09:12:45.049Z,11.2352
2023-05-19T09:13:46.193Z,11.2252
2023-05-19T09:14:48.029Z,10.8992
2023-05-19T09:15:48.389Z,11.0705
2023-05-19T09:16:49.519Z,11.3683
2023-05-19T09:17:50.576Z,10.8652
2023-05-19T09:18:50.987Z,11.3309
2023-05-19T09:19:52.949Z,11.2226
2023-05-19T09:20:53.200Z,11.7855
2023-05-19T09:21:55.246Z,11.5949
2023-05-19T09:22:55.245Z,11.3631
2023-05-19T09:23:56.616Z,11.3295
2023-05-19T09:24:56.597Z,11.0296
2023-05-19T09:25:58.162Z,10.5272
2023-05-19T09:27:00.031Z,11.1290
2023-05-19T09:28:00.335Z,11.2338
2023-05-19T09:30:01.038Z,11.0209
2023-05-19T09:31:03.307Z,11.0869
2023-05-19T09:32:03.424Z,10.7835
2023-05-19T09:33:05.762Z,11.2404
2023-05-19T09:34:05.654Z,11.1328
2023-05-19T09:35:06.075Z,10.5565
2023-05-19T09:36:06.791Z,10.6226
2023-05-19T09:37:08.483Z,10.8454
2023-05-19T09:38:09.947Z,11.0303
2023-05-19T09:39:10.518Z,11.2698
2023-05-19T09:40:13.031Z,11.8476
2023-05-19T09:41:11.775Z,11.6746
2023-05-19T09:42:13.988Z,11.8585
2023-05-19T09:43:15.971Z,11.8333
2023-05-19T09:44:17.480Z,11.2457
2023-05-19T09:45:18.194Z,11.7715
2023-05-19T09:46:20.002Z,11.9581
2023-05-19T09:47:22.099Z,11.9005
2023-05-19T09:48:22.820Z,11.8604
2023-05-19T09:49:24.293Z,11.6029
2023-05-19T09:50:25.329Z,11.8986
2023-05-19T09:51:26.202Z,12.3385
2023-05-19T09:52:27.503Z,12.4835
2023-05-19T09:53:29.607Z,11.8484
2023-05-19T09:54:31.330Z,11.8267
2023-05-19T09:56:32.640Z,12.0942
2023-05-19T09:57:34.502Z,12.2491
2023-05-19T09:58:36.715Z,12.1193
2023-05-19T09:59:37.689Z,12.0144
2023-05-19T10:00:38.560Z,12.3699
2023-05-19T10:01:40.832Z,12.1110
2023-05-19T10:02:41.296Z,11.8690
2023-05-19T10:03:41.728Z,11.6536
2023-05-19T10:04:42.472Z,12.5559
2023-05-19T10:05:42.762Z,12.5406
2023-05-19T10:06:43.597Z,13.1790
2023-05-19T10:07:45.232Z,12.5733
2023-05-19T10:08:47.357Z,12.3741
2023-05-19T10:09:48.043Z,13.0951
2023-05-19T10:10:48.655Z,13.2211
2023-05-19T10:11:49.219Z,12.4111
2023-05-19T10:12:50.188Z,12.3834
2023-05-19T10:13:51.010Z,11.8207
2023-05-19T10:15:58.229Z,12.8461
2023-05-19T10:16:53.029Z,12.7764
2023-05-19T10:17:54.022Z,12.9396
2023-05-19T10:18:54.540Z,12.6785
2023-05-19T10:19:54.765Z,13.0640
2023-05-19T10:20:55.470Z,12.3538
2023-05-19T10:21:55.680Z,12.0113
2023-05-19T10:22:56.252Z,12.2445
2023-05-19T10:24:58.165Z,12.2864
2023-05-19T10:25:59.275Z,12.3252
2023-05-19T10:27:00.465Z,12.1515
2023-05-19T10:28:02.467Z,11.7484
2023-05-19T10:29:02.722Z,12.4003
2023-05-19T10:30:03.838Z,12.3653
2023-05-19T10:31:05.406Z,12.4635
2023-05-19T10:32:06.192Z,12.4445
2023-05-19T10:33:07.606Z,12.2089
2023-05-19T10:34:08.550Z,12.4527
2023-05-19T10:35:09.791Z,13.1219
2023-05-19T10:36:10.757Z,12.6354
2023-05-19T10:37:10.962Z,12.0684
2023-05-19T10:38:11.543Z,12.6558
2023-05-19T10:39:13.462Z,12.2442
2023-05-19T10:40:13.703Z,12.6530
2023-05-19T10:41:14.820Z,12.4107
2023-05-19T10:42:15.650Z,12.4676
2023-05-19T10:43:17.094Z,12.3995
2023-05-19T10:44:17.329Z,12.4467
2023-05-19T10:45:19.127Z,12.2245
2023-05-19T10:46:20.591Z,12.7855
2023-05-19T10:47:21.227Z,13.3381
2023-05-19T10:48:21.571Z,13.2753
2023-05-19T10:49:22.294Z,12.0761
2023-05-19T10:50:22.607Z,12.2108
2023-05-19T10:51:23.467Z,12.5709
2023-05-19T10:52:23.857Z,13.0221
2023-05-19T10:53:24.745Z,12.6529
2023-05-19T10:54:25.444Z,12.5350
2023-05-19T10:55:26.044Z,12.9926
2023-05-19T10:56:28.333Z,13.1485
2023-05-19T10:57:28.879Z,13.0843
2023-05-19T10:58:31.061Z,13.4670
2023-05-19T10:59:32.151Z,13.0019
2023-05-19T11:00:34.328Z,13.8394
2023-05-19T11:01:34.966Z,13.5414
2023-05-19T11:02:35.370Z,13.1384
2023-05-19T11:03:36.961Z,13.1760
2023-05-19T11:04:37.275Z,13.4540
2023-05-19T11:05:37.920Z,13.3381
2023-05-19T11:06:37.978Z,13.2265
2023-05-19T11:07:38.404Z,13.0171
2023-05-19T11:08:39.109Z,12.5116
2023-05-19T11:09:40.686Z,12.7171
2023-05-19T11:10:42.323Z,12.8819
2023-05-19T11:11:44.408Z,13.0212
2023-05-19T11:12:45.548Z,12.4005
2023-05-19T11:13:46.310Z,12.5274
2023-05-19T11:14:46.344Z,13.2173
2023-05-19T11:15:47.241Z,13.6418
2023-05-19T11:17:47.614Z,13.4824
2023-05-19T11:18:47.737Z,12.7952
2023-05-19T11:19:48.256Z,13.6863
2023-05-19T11:20:49.049Z,13.8774
2023-05-19T11:21:49.567Z,14.2061
2023-05-19T11:22:49.854Z,14.0892
2023-05-19T11:23:50.182Z,13.8586
2023-05-19T11:24:50.909Z,14.1380
2023-05-19T11:25:52.645Z,13.8278
2023-05-19T11:26:53.270Z,13.5494
2023-05-19T11:27:55.216Z,13.4674
2023-05-19T11:28:55.600Z,13.1366
2023-05-19T11:29:55.914Z,12.8928
2023-05-19T11:30:56.548Z,12.6348
2023-05-19T11:31:57.000Z,12.3318
2023-05-19T11:32:57.701Z,12.8052
2023-05-19T11:33:59.208Z,12.9886
2023-05-19T11:34:59.223Z,13.0650
2023-05-19T11:36:01.310Z,13.1979
2023-05-19T11:37:02.882Z,13.6564
2023-05-19T11:38:03.657Z,14.6108
2023-05-19T11:39:05.102Z,14.3330
2023-05-19T11:40:06.797Z,14.2365
2023-05-19T11:41:08.034Z,14.1516
2023-05-19T11:42:09.419Z,15.1747
2023-05-19T11:43:10.050Z,15.2246
2023-05-19T11:44:11.021Z,15.4519
2023-05-19T11:45:11.766Z,14.9658
2023-05-19T11:46:13.293Z,14.4099
2023-05-19T11:47:14.613Z,14.3656
2023-05-19T11:48:16.540Z,14.2611
2023-05-19T11:49:17.813Z,14.2814
2023-05-19T11:50:19.013Z,14.1679
2023-05-19T11:51:19.180Z,14.2022
2023-05-19T11:52:19.571Z,14.4542
2023-05-19T11:53:20.770Z,14.3279
2023-05-19T11:54:22.759Z,14.9926
2023-05-19T11:55:23.648Z,14.1118
2023-05-19T11:56:24.083Z,14.7649
2023-05-19T11:57:26.094Z,15.3537
2023-05-19T11:58:26.883Z,15.0367
2023-05-19T11:59:27.540Z,15.0090
2023-05-19T12:00:28.852Z,15.5884
2023-05-19T12:01:29.584Z,16.0316
2023-05-19T12:02:30.019Z,15.8166
2023-05-19T12:03:30.740Z,14.8265
2023-05-19T12:04:31.325Z,16.2325
2023-05-19T12:05:36.654Z,15.5804
2023-05-19T12:09:05.147Z,15.4446
2023-05-19T12:10:05.997Z,14.8131
2023-05-19T12:11:07.533Z,14.6613
2023-05-19T12:12:07.798Z,14.8624
2023-05-19T12:13:09.405Z,14.4466
2023-05-19T12:14:11.098Z,14.2486
2023-05-19T12:15:13.177Z,14.9687
2023-05-19T12:16:14.738Z,14.8330
2023-05-19T12:17:14.930Z,14.4917
2023-05-19T12:18:14.936Z,14.9235
2023-05-19T12:19:15.652Z,15.4238
2023-05-19T12:20:16.491Z,14.2005
2023-05-19T12:21:17.135Z,14.4347
2023-05-19T12:22:17.816Z,14.9613
2023-05-19T12:23:18.223Z,15.1892
2023-05-19T12:24:19.169Z,15.2935
2023-05-19T12:25:20.089Z,14.9157
2023-05-19T12:26:20.413Z,15.5532
2023-05-19T12:27:20.754Z,15.4489
2023-05-19T12:28:20.738Z,15.5514
2023-05-19T12:29:21.595Z,15.0483
2023-05-19T12:30:21.978Z,16.0970
2023-05-19T12:31:23.261Z,15.5360
2023-05-19T12:32:24.962Z,15.8511
2023-05-19T12:33:26.444Z,14.9468
2023-05-19T12:34:27.252Z,15.6734
2023-05-19T12:35:29.076Z,15.4358
2023-05-19T12:36:30.574Z,15.1530
2023-05-19T12:37:31.618Z,15.5399
2023-05-19T12:38:32.584Z,15.7847
2023-05-19T12:39:33.562Z,16.2061
2023-05-19T12:40:35.087Z,16.0259
2023-05-19T12:41:35.462Z,15.1374
2023-05-19T12:42:35.633Z,15.7804
2023-05-19T12:43:36.647Z,15.5027
2023-05-19T12:45:39.571Z,15.3366
2023-05-19T12:46:40.224Z,14.9394
2023-05-19T12:47:41.910Z,15.2455
2023-05-19T12:48:42.364Z,15.0042
2023-05-19T12:49:43.779Z,14.8549
2023-05-19T12:50:44.523Z,14.7265
2023-05-19T12:51:46.724Z,15.1065
2023-05-19T12:52:46.921Z,14.9517
2023-05-19T12:53:48.670Z,14.3395
2023-05-19T12:54:49.861Z,14.6443
2023-05-19T12:55:50.840Z,14.7640
2023-05-19T12:56:51.860Z,15.1675
2023-05-19T12:57:52.077Z,15.1368
2023-05-19T12:58:52.113Z,14.9404
2023-05-19T12:59:54.587Z,14.7993
2023-05-19T13:01:55.149Z,14.8983
2023-05-19T13:02:55.492Z,14.4954
2023-05-19T13:03:56.144Z,15.4104
2023-05-19T13:04:57.313Z,15.4265
2023-05-19T13:05:59.112Z,15.6224
2023-05-19T13:06:59.590Z,15.0873
2023-05-19T13:08:01.322Z,15.0301
2023-05-19T13:09:02.838Z,15.8423
2023-05-19T13:10:04.236Z,15.6376
2023-05-19T13:11:04.945Z,15.0276
2023-05-19T13:12:06.273Z,15.2477
2023-05-19T13:13:06.500Z,15.2720
2023-05-19T13:16:11.332Z,14.2465
2023-05-19T13:17:11.722Z,14.2180
2023-05-19T13:18:12.350Z,14.1224
2023-05-19T13:19:24.285Z,14.1264
2023-05-19T13:20:43.446Z,13.9110
2023-05-19T13:21:44.537Z,13.8895
2023-05-19T13:22:45.823Z,14.0514
2023-05-19T13:23:47.564Z,13.9422
2023-05-19T13:24:47.878Z,14.1574
2023-05-19T13:25:49.382Z,14.3515
2023-05-19T13:26:50.238Z,14.4701
2023-05-19T13:27:51.754Z,14.4839
2023-05-19T13:28:51.905Z,14.4135
2023-05-19T13:29:53.184Z,14.3432
2023-05-19T13:30:54.253Z,14.5353
2023-05-19T13:31:55.222Z,14.3140
2023-05-19T13:32:56.815Z,14.0960
2023-05-19T13:33:57.389Z,14.7059
2023-05-19T13:34:58.174Z,14.4631
2023-05-19T13:35:59.305Z,14.0899
2023-05-19T13:37:00.054Z,14.0718
2023-05-19T13:38:01.300Z,13.8107
2023-05-19T13:39:02.495Z,13.8824
2023-05-19T13:40:02.819Z,13.8960
2023-05-19T13:41:03.060Z,13.6901
2023-05-19T13:42:03.921Z,13.9003
2023-05-19T13:43:05.264Z,14.0658
2023-05-19T13:44:05.537Z,14.3938
2023-05-19T13:45:07.752Z,13.9678
2023-05-19T13:46:08.859Z,14.0288
2023-05-19T13:47:10.434Z,14.2216
2023-05-19T13:48:11.094Z,14.1960
2023-05-19T13:49:12.125Z,14.4228
2023-05-19T13:50:12.945Z,14.2356
2023-05-19T13:51:13.483Z,14.4755
2023-05-19T13:52:14.261Z,14.6652
2023-05-19T13:54:14.476Z,14.7999
2023-05-19T13:55:16.129Z,14.4877
2023-05-19T13:56:17.086Z,14.4926
2023-05-19T13:57:17.618Z,14.8189
2023-05-19T13:58:18.078Z,14.7372
2023-05-19T13:59:18.398Z,14.3190
2023-05-19T14:00:20.138Z,14.2193
2023-05-19T14:01:21.508Z,14.2234
2023-05-19T14:02:22.484Z,14.3045
2023-05-19T14:03:22.798Z,14.3306
2023-05-19T14:04:24.941Z,14.2440
2023-05-19T14:05:25.154Z,14.0344
2023-05-19T14:06:26.950Z,13.8807
2023-05-19T14:07:27.947Z,13.7890
2023-05-19T14:08:28.589Z,13.7058
2023-05-19T14:09:29.954Z,13.6357
2023-05-19T14:10:31.192Z,13.5862
2023-05-19T14:11:32.532Z,13.6179
2023-05-19T14:12:43.674Z,13.5708
2023-05-19T14:14:04.438Z,13.5872
2023-05-19T14:15:05.125Z,13.5781
2023-05-19T14:16:05.611Z,13.5137
2023-05-19T14:17:06.266Z,13.4908
2023-05-19T14:18:07.447Z,13.5857
2023-05-19T14:19:07.407Z,13.5473
2023-05-19T14:20:07.524Z,13.5055
2023-05-19T14:21:07.826Z,13.6272
2023-05-19T14:22:09.725Z,13.6467
2023-05-19T14:23:11.090Z,13.8291
2023-05-19T14:25:12.743Z,13.8391
2023-05-19T14:26:12.914Z,13.9232
2023-05-19T14:27:14.358Z,13.8095
2023-05-19T14:29:14.494Z,13.9205
2023-05-19T14:30:14.909Z,13.8972
2023-05-19T14:31:16.781Z,13.7408
2023-05-19T14:32:17.490Z,13.7448
2023-05-19T14:33:19.040Z,13.6956
2023-05-19T14:34:20.123Z,13.8949
2023-05-19T14:35:20.548Z,13.7421
2023-05-19T14:36:21.140Z,13.6396
2023-05-19T14:37:23.161Z,13.6609
2023-05-19T14:38:26.047Z,13.6332
2023-05-19T14:39:25.561Z,13.5769
2023-05-19T14:40:25.564Z,13.7473
2023-05-19T14:41:25.655Z,13.7092
2023-05-19T14:42:26.699Z,13.7335
2023-05-19T14:43:27.764Z,13.8494
2023-05-19T14:44:29.210Z,13.8426
2023-05-19T14:45:29.381Z,13.8399
2023-05-19T14:46:29.831Z,13.7371
2023-05-19T14:47:31.140Z,13.8080
2023-05-19T14:48:31.763Z,14.0665
2023-05-19T14:49:31.827Z,14.2761
2023-05-19T14:50:32.223Z,14.0719
2023-05-19T14:51:32.690Z,14.3599
2023-05-19T14:52:33.217Z,14.2018
2023-05-19T14:53:34.119Z,14.3758
2023-05-19T14:54:34.789Z,14.3488
2023-05-19T14:55:36.290Z,14.1108
2023-05-19T14:56:36.825Z,13.8926
2023-05-19T14:57:37.670Z,13.7966
2023-05-19T14:58:38.336Z,13.9566
2023-05-19T14:59:39.337Z,13.9882
2023-05-19T15:00:39.426Z,13.8557
2023-05-19T15:01:40.312Z,13.7532
2023-05-19T15:02:40.758Z,14.0771
2023-05-19T15:03:42.499Z,14.0933
2023-05-19T15:04:44.366Z,13.8918
2023-05-19T15:05:44.555Z,13.9583
2023-05-19T15:06:48.071Z,13.8219
2023-05-19T15:07:45.078Z,13.9047
2023-05-19T15:08:45.932Z,13.9140
2023-05-19T15:09:46.381Z,13.7862
2023-05-19T15:10:46.859Z,13.9098
2023-05-19T15:11:47.529Z,14.0814
2023-05-19T15:12:48.008Z,14.3057
2023-05-19T15:14:49.033Z,13.9109
2023-05-19T15:15:49.091Z,14.0728
2023-05-19T15:16:50.622Z,14.1618
2023-05-19T15:17:51.086Z,14.0137
2023-05-19T15:18:53.062Z,13.8069
2023-05-19T15:19:54.611Z,13.8162
2023-05-19T15:21:55.912Z,13.6828
2023-05-19T15:22:57.172Z,13.5991
2023-05-19T15:23:58.404Z,13.4807
2023-05-19T15:24:59.931Z,13.4763
2023-05-19T15:26:00.140Z,13.3460
2023-05-19T15:27:01.324Z,13.2308
2023-05-19T15:28:02.677Z,13.2164
2023-05-19T15:30:02.813Z,13.0803
2023-05-19T15:31:05.027Z,13.0524
2023-05-19T15:32:06.621Z,13.0260
2023-05-19T15:33:07.007Z,13.0440
2023-05-19T15:35:10.276Z,13.0065
2023-05-19T15:36:12.313Z,13.0433
2023-05-19T15:37:13.158Z,13.0003
2023-05-19T15:38:14.802Z,13.0269
2023-05-19T15:39:16.252Z,13.0357
2023-05-19T15:40:17.866Z,12.9521
2023-05-19T15:41:18.791Z,12.9981
2023-05-19T15:42:20.231Z,12.9562
2023-05-19T15:43:20.865Z,12.9933
2023-05-19T15:44:21.150Z,13.0456
2023-05-19T15:45:21.681Z,13.0069
2023-05-19T15:46:23.233Z,13.0001
2023-05-19T15:47:24.807Z,13.1386
2023-05-19T15:48:26.741Z,13.0835
2023-05-19T15:49:29.622Z,13.0426
2023-05-19T15:56:37.432Z,13.0677
2023-05-19T16:00:43.572Z,13.1976
2023-05-19T16:01:44.224Z,13.3119
2023-05-19T16:02:44.279Z,13.2874
2023-05-19T16:03:46.394Z,13.3035
2023-05-19T16:04:46.878Z,13.2121
2023-05-19T16:05:47.970Z,13.2057
2023-05-19T16:06:48.507Z,13.3844
2023-05-19T16:07:48.699Z,13.2026
2023-05-19T16:08:51.523Z,13.4275
2023-05-19T16:09:52.934Z,13.3900
2023-05-19T16:10:55.454Z,13.4375
2023-05-19T16:11:55.957Z,13.4333
2023-05-19T16:21:05.260Z,13.5749
2023-05-19T16:22:05.950Z,13.4605
2023-05-19T16:23:07.368Z,13.9202
2023-05-19T16:24:08.398Z,13.9813
2023-05-19T16:25:08.462Z,14.0498
2023-05-19T16:26:09.506Z,13.8219
2023-05-19T16:27:10.935Z,13.8397
2023-05-19T16:28:11.802Z,13.9837
2023-05-19T16:29:13.879Z,13.8216
2023-05-19T16:30:14.664Z,13.8211
2023-05-19T16:31:16.128Z,13.7530
2023-05-19T16:32:16.623Z,13.7316
2023-05-19T16:41:25.870Z,13.4939
2023-05-19T16:42:26.274Z,13.4857
2023-05-19T16:43:28.654Z,13.5039
2023-05-19T16:44:28.743Z,13.5175
2023-05-19T16:48:32.294Z,13.2851
2023-05-19T16:49:33.021Z,13.2461
2023-05-19T16:50:35.117Z,13.1411
2023-05-19T16:51:36.086Z,13.2750
2023-05-19T16:52:38.058Z,13.3455
2023-05-19T16:53:40.770Z,13.3020
2023-05-19T16:54:41.400Z,13.1847
2023-05-19T17:01:50.835Z,12.9956
2023-05-19T17:03:52.460Z,12.9383